sensor_id;sensor_type;location;lat;lon;timestamp;P1;durP1;ratioP1;P2;durP2;ratioP2
31378;SDS011;61664;48.112;11.662;2023-02-03T00:02:07;3.63;;;1.58;;
31378;SDS011;61664;48.112;11.662;2023-02-03T00:04:34;4.85;;;1.70;;
31378;SDS011;61664;48.112;11.662;2023-02-03T00:07:01;5.63;;;1.67;;
31378;SDS011;61664;48.112;11.662;2023-02-03T00:09:28;1.40;;;1.30;;
31378;SDS011;61664;48.112;11.662;2023-02-03T00:11:55;1.77;;;1.38;;
31378;SDS011;61664;48.112;11.662;2023-02-03T00:14:22;1.35;;;1.17;;
31378;SDS011;61664;48.112;11.662;2023-02-03T00:16:49;1.17;;;1.08;;
31378;SDS011;61664;48.112;11.662;2023-02-03T00:19:16;2.20;;;1.10;;
31378;SDS011;61664;48.112;11.662;2023-02-03T00:21:43;1.60;;;1.30;;
31378;SDS011;61664;48.112;11.662;2023-02-03T00:24:10;1.92;;;1.00;;
31378;SDS011;61664;48.112;11.662;2023-02-03T00:26:43;1.35;;;1.25;;
31378;SDS011;61664;48.112;11.662;2023-02-03T00:29:10;3.03;;;1.08;;
31378;SDS011;61664;48.112;11.662;2023-02-03T00:31:38;2.75;;;1.23;;
31378;SDS011;61664;48.112;11.662;2023-02-03T00:34:06;2.85;;;1.25;;
31378;SDS011;61664;48.112;11.662;2023-02-03T00:36:33;1.38;;;1.15;;
31378;SDS011;61664;48.112;11.662;2023-02-03T00:39:01;3.25;;;1.30;;
31378;SDS011;61664;48.112;11.662;2023-02-03T00:41:29;1.38;;;1.27;;
31378;SDS011;61664;48.112;11.662;2023-02-03T00:43:56;1.52;;;1.13;;
31378;SDS011;61664;48.112;11.662;2023-02-03T00:46:24;2.05;;;1.10;;
31378;SDS011;61664;48.112;11.662;2023-02-03T00:48:50;1.40;;;0.95;;
31378;SDS011;61664;48.112;11.662;2023-02-03T00:51:18;1.92;;;1.52;;
31378;SDS011;61664;48.112;11.662;2023-02-03T00:53:44;1.23;;;1.00;;
31378;SDS011;61664;48.112;11.662;2023-02-03T00:56:13;3.38;;;1.70;;
31378;SDS011;61664;48.112;11.662;2023-02-03T00:58:40;1.80;;;1.05;;
31378;SDS011;61664;48.112;11.662;2023-02-03T01:01:07;1.17;;;1.00;;
31378;SDS011;61664;48.112;11.662;2023-02-03T01:03:35;0.90;;;0.90;;
31378;SDS011;61664;48.112;11.662;2023-02-03T01:06:13;2.13;;;1.02;;
31378;SDS011;61664;48.112;11.662;2023-02-03T01:08:46;1.95;;;0.90;;
31378;SDS011;61664;48.112;11.662;2023-02-03T01:11:15;1.23;;;0.90;;
31378;SDS011;61664;48.112;11.662;2023-02-03T01:13:47;2.13;;;0.85;;
31378;SDS011;61664;48.112;11.662;2023-02-03T01:16:16;2.78;;;0.90;;
31378;SDS011;61664;48.112;11.662;2023-02-03T01:18:45;1.60;;;1.05;;
31378;SDS011;61664;48.112;11.662;2023-02-03T01:21:17;2.85;;;1.42;;
31378;SDS011;61664;48.112;11.662;2023-02-03T01:23:49;2.42;;;0.98;;
31378;SDS011;61664;48.112;11.662;2023-02-03T01:26:18;1.55;;;0.98;;
31378;SDS011;61664;48.112;11.662;2023-02-03T01:28:51;3.13;;;1.10;;
31378;SDS011;61664;48.112;11.662;2023-02-03T01:31:21;3.72;;;1.23;;
31378;SDS011;61664;48.112;11.662;2023-02-03T01:33:53;2.88;;;1.23;;
31378;SDS011;61664;48.112;11.662;2023-02-03T01:36:22;0.98;;;0.85;;
31378;SDS011;61664;48.112;11.662;2023-02-03T01:38:52;1.10;;;0.85;;
31378;SDS011;61664;48.112;11.662;2023-02-03T01:41:20;3.40;;;1.27;;
31378;SDS011;61664;48.112;11.662;2023-02-03T01:43:55;1.33;;;1.23;;
31378;SDS011;61664;48.112;11.662;2023-02-03T01:46:34;2.90;;;0.95;;
31378;SDS011;61664;48.112;11.662;2023-02-03T01:49:19;1.57;;;1.20;;
31378;SDS011;61664;48.112;11.662;2023-02-03T01:51:52;3.80;;;1.20;;
31378;SDS011;61664;48.112;11.662;2023-02-03T01:54:24;1.73;;;1.13;;
31378;SDS011;61664;48.112;11.662;2023-02-03T01:57:03;2.65;;;1.10;;
31378;SDS011;61664;48.112;11.662;2023-02-03T01:59:39;1.63;;;1.05;;
31378;SDS011;61664;48.112;11.662;2023-02-03T02:02:07;1.42;;;1.00;;
31378;SDS011;61664;48.112;11.662;2023-02-03T02:07:49;1.15;;;0.98;;
31378;SDS011;61664;48.112;11.662;2023-02-03T02:10:16;2.95;;;1.25;;
31378;SDS011;61664;48.112;11.662;2023-02-03T02:12:43;1.77;;;1.25;;
31378;SDS011;61664;48.112;11.662;2023-02-03T02:15:10;1.55;;;1.00;;
31378;SDS011;61664;48.112;11.662;2023-02-03T02:21:41;0.77;;;0.77;;
31378;SDS011;61664;48.112;11.662;2023-02-03T02:35:57;3.60;;;1.13;;
31378;SDS011;61664;48.112;11.662;2023-02-03T02:41:38;0.88;;;0.88;;
31378;SDS011;61664;48.112;11.662;2023-02-03T02:47:09;1.83;;;1.10;;
31378;SDS011;61664;48.112;11.662;2023-02-03T02:49:47;0.95;;;0.75;;
31378;SDS011;61664;48.112;11.662;2023-02-03T02:52:37;1.83;;;1.10;;
31378;SDS011;61664;48.112;11.662;2023-02-03T02:55:11;1.73;;;0.90;;
31378;SDS011;61664;48.112;11.662;2023-02-03T02:57:44;1.08;;;0.95;;
31378;SDS011;61664;48.112;11.662;2023-02-03T03:00:13;2.65;;;1.10;;
31378;SDS011;61664;48.112;11.662;2023-02-03T03:02:40;1.80;;;1.20;;
31378;SDS011;61664;48.112;11.662;2023-02-03T03:05:07;0.82;;;0.80;;
31378;SDS011;61664;48.112;11.662;2023-02-03T03:07:47;1.00;;;0.80;;
31378;SDS011;61664;48.112;11.662;2023-02-03T03:10:23;1.40;;;0.82;;
31378;SDS011;61664;48.112;11.662;2023-02-03T03:15:30;0.77;;;0.70;;
31378;SDS011;61664;48.112;11.662;2023-02-03T03:18:20;1.23;;;0.82;;
31378;SDS011;61664;48.112;11.662;2023-02-03T03:21:00;1.00;;;0.90;;
31378;SDS011;61664;48.112;11.662;2023-02-03T03:23:33;1.75;;;1.10;;
31378;SDS011;61664;48.112;11.662;2023-02-03T03:26:12;1.25;;;0.70;;
31378;SDS011;61664;48.112;11.662;2023-02-03T03:28:48;1.98;;;1.05;;
31378;SDS011;61664;48.112;11.662;2023-02-03T03:31:22;0.90;;;0.90;;
31378;SDS011;61664;48.112;11.662;2023-02-03T03:33:49;1.88;;;0.73;;
31378;SDS011;61664;48.112;11.662;2023-02-03T03:36:18;1.30;;;0.70;;
31378;SDS011;61664;48.112;11.662;2023-02-03T03:44:14;1.92;;;0.80;;
31378;SDS011;61664;48.112;11.662;2023-02-03T03:47:10;1.60;;;1.00;;
31378;SDS011;61664;48.112;11.662;2023-02-03T03:49:44;1.05;;;0.77;;
31378;SDS011;61664;48.112;11.662;2023-02-03T03:52:14;2.40;;;0.90;;
31378;SDS011;61664;48.112;11.662;2023-02-03T03:54:47;3.45;;;0.80;;
31378;SDS011;61664;48.112;11.662;2023-02-03T03:57:19;0.70;;;0.70;;
31378;SDS011;61664;48.112;11.662;2023-02-03T04:00:03;1.23;;;1.13;;
31378;SDS011;61664;48.112;11.662;2023-02-03T04:02:35;0.70;;;0.70;;
31378;SDS011;61664;48.112;11.662;2023-02-03T04:05:07;0.50;;;0.50;;
31378;SDS011;61664;48.112;11.662;2023-02-03T04:07:36;1.45;;;0.90;;
31378;SDS011;61664;48.112;11.662;2023-02-03T04:12:55;0.75;;;0.68;;
31378;SDS011;61664;48.112;11.662;2023-02-03T04:15:22;0.70;;;0.70;;
31378;SDS011;61664;48.112;11.662;2023-02-03T04:17:49;1.77;;;0.90;;
31378;SDS011;61664;48.112;11.662;2023-02-03T04:20:16;2.40;;;0.70;;
31378;SDS011;61664;48.112;11.662;2023-02-03T04:22:43;0.95;;;0.80;;
31378;SDS011;61664;48.112;11.662;2023-02-03T04:25:10;2.22;;;0.77;;
31378;SDS011;61664;48.112;11.662;2023-02-03T04:27:37;1.70;;;0.57;;
31378;SDS011;61664;48.112;11.662;2023-02-03T04:30:04;3.10;;;0.80;;
31378;SDS011;61664;48.112;11.662;2023-02-03T04:32:32;1.40;;;0.60;;
31378;SDS011;61664;48.112;11.662;2023-02-03T04:35:01;0.60;;;0.55;;
31378;SDS011;61664;48.112;11.662;2023-02-03T04:37:30;0.70;;;0.47;;
31378;SDS011;61664;48.112;11.662;2023-02-03T04:39:58;2.50;;;1.13;;
31378;SDS011;61664;48.112;11.662;2023-02-03T04:42:25;1.75;;;0.77;;
31378;SDS011;61664;48.112;11.662;2023-02-03T04:44:53;2.85;;;1.00;;
31378;SDS011;61664;48.112;11.662;2023-02-03T04:47:19;2.47;;;1.02;;
31378;SDS011;61664;48.112;11.662;2023-02-03T04:49:46;1.95;;;0.70;;
31378;SDS011;61664;48.112;11.662;2023-02-03T04:52:13;3.50;;;0.63;;
31378;SDS011;61664;48.112;11.662;2023-02-03T04:54:41;0.93;;;0.70;;
31378;SDS011;61664;48.112;11.662;2023-02-03T04:57:08;0.98;;;0.70;;
31378;SDS011;61664;48.112;11.662;2023-02-03T04:59:34;0.70;;;0.60;;
31378;SDS011;61664;48.112;11.662;2023-02-03T05:02:02;1.40;;;0.80;;
31378;SDS011;61664;48.112;11.662;2023-02-03T05:04:30;1.45;;;1.10;;
31378;SDS011;61664;48.112;11.662;2023-02-03T05:06:57;0.95;;;0.70;;
31378;SDS011;61664;48.112;11.662;2023-02-03T05:09:24;1.38;;;0.98;;
31378;SDS011;61664;48.112;11.662;2023-02-03T05:11:51;1.08;;;0.90;;
31378;SDS011;61664;48.112;11.662;2023-02-03T05:14:19;2.58;;;1.20;;
31378;SDS011;61664;48.112;11.662;2023-02-03T05:16:46;3.38;;;0.90;;
31378;SDS011;61664;48.112;11.662;2023-02-03T05:19:13;1.10;;;1.00;;
31378;SDS011;61664;48.112;11.662;2023-02-03T05:21:40;1.00;;;0.80;;
31378;SDS011;61664;48.112;11.662;2023-02-03T05:24:07;1.50;;;0.65;;
31378;SDS011;61664;48.112;11.662;2023-02-03T05:26:34;1.30;;;1.20;;
31378;SDS011;61664;48.112;11.662;2023-02-03T05:29:01;2.30;;;0.80;;
31378;SDS011;61664;48.112;11.662;2023-02-03T05:31:29;2.35;;;1.02;;
31378;SDS011;61664;48.112;11.662;2023-02-03T05:33:56;6.22;;;1.02;;
31378;SDS011;61664;48.112;11.662;2023-02-03T05:36:22;2.00;;;1.05;;
31378;SDS011;61664;48.112;11.662;2023-02-03T05:38:49;1.50;;;0.90;;
31378;SDS011;61664;48.112;11.662;2023-02-03T05:41:16;2.60;;;1.05;;
31378;SDS011;61664;48.112;11.662;2023-02-03T05:44:01;1.80;;;1.20;;
31378;SDS011;61664;48.112;11.662;2023-02-03T05:46:28;1.38;;;0.95;;
31378;SDS011;61664;48.112;11.662;2023-02-03T05:48:55;1.10;;;0.93;;
31378;SDS011;61664;48.112;11.662;2023-02-03T05:51:22;1.20;;;1.02;;
31378;SDS011;61664;48.112;11.662;2023-02-03T05:53:50;0.85;;;0.70;;
31378;SDS011;61664;48.112;11.662;2023-02-03T05:56:18;1.38;;;0.55;;
31378;SDS011;61664;48.112;11.662;2023-02-03T05:58:45;1.10;;;0.75;;
31378;SDS011;61664;48.112;11.662;2023-02-03T06:01:11;1.10;;;0.90;;
31378;SDS011;61664;48.112;11.662;2023-02-03T06:03:38;5.68;;;0.95;;
31378;SDS011;61664;48.112;11.662;2023-02-03T06:06:05;2.80;;;0.70;;
31378;SDS011;61664;48.112;11.662;2023-02-03T06:08:32;0.70;;;0.70;;
31378;SDS011;61664;48.112;11.662;2023-02-03T06:10:59;0.80;;;0.50;;
31378;SDS011;61664;48.112;11.662;2023-02-03T06:13:27;1.27;;;0.93;;
31378;SDS011;61664;48.112;11.662;2023-02-03T06:15:54;3.50;;;1.00;;
31378;SDS011;61664;48.112;11.662;2023-02-03T06:18:21;2.25;;;0.77;;
31378;SDS011;61664;48.112;11.662;2023-02-03T06:20:49;1.10;;;0.80;;
31378;SDS011;61664;48.112;11.662;2023-02-03T06:23:16;1.70;;;0.88;;
31378;SDS011;61664;48.112;11.662;2023-02-03T06:25:46;3.22;;;1.00;;
31378;SDS011;61664;48.112;11.662;2023-02-03T06:28:14;2.08;;;0.75;;
31378;SDS011;61664;48.112;11.662;2023-02-03T06:30:42;0.85;;;0.68;;
31378;SDS011;61664;48.112;11.662;2023-02-03T06:33:09;0.90;;;0.80;;
31378;SDS011;61664;48.112;11.662;2023-02-03T06:35:36;0.60;;;0.60;;
31378;SDS011;61664;48.112;11.662;2023-02-03T06:38:03;0.73;;;0.60;;
31378;SDS011;61664;48.112;11.662;2023-02-03T06:40:30;3.33;;;0.65;;
31378;SDS011;61664;48.112;11.662;2023-02-03T06:42:57;1.02;;;0.70;;
31378;SDS011;61664;48.112;11.662;2023-02-03T06:45:23;5.25;;;0.88;;
31378;SDS011;61664;48.112;11.662;2023-02-03T06:47:51;3.13;;;0.98;;
31378;SDS011;61664;48.112;11.662;2023-02-03T06:50:17;1.05;;;1.02;;
31378;SDS011;61664;48.112;11.662;2023-02-03T06:52:45;0.77;;;0.70;;
31378;SDS011;61664;48.112;11.662;2023-02-03T06:55:14;2.42;;;0.80;;
31378;SDS011;61664;48.112;11.662;2023-02-03T06:57:41;0.90;;;0.80;;
31378;SDS011;61664;48.112;11.662;2023-02-03T07:00:14;2.28;;;0.60;;
31378;SDS011;61664;48.112;11.662;2023-02-03T07:02:44;5.38;;;0.90;;
31378;SDS011;61664;48.112;11.662;2023-02-03T07:05:11;0.77;;;0.77;;
31378;SDS011;61664;48.112;11.662;2023-02-03T07:07:38;0.77;;;0.77;;
31378;SDS011;61664;48.112;11.662;2023-02-03T07:10:06;0.55;;;0.55;;
31378;SDS011;61664;48.112;11.662;2023-02-03T07:12:33;2.33;;;0.75;;
31378;SDS011;61664;48.112;11.662;2023-02-03T07:15:02;1.20;;;0.73;;
31378;SDS011;61664;48.112;11.662;2023-02-03T07:17:30;0.85;;;0.73;;
31378;SDS011;61664;48.112;11.662;2023-02-03T07:19:58;1.20;;;0.95;;
31378;SDS011;61664;48.112;11.662;2023-02-03T07:22:25;1.77;;;0.75;;
31378;SDS011;61664;48.112;11.662;2023-02-03T07:24:52;1.20;;;0.50;;
31378;SDS011;61664;48.112;11.662;2023-02-03T07:27:20;1.10;;;0.90;;
31378;SDS011;61664;48.112;11.662;2023-02-03T07:29:47;1.13;;;0.80;;
31378;SDS011;61664;48.112;11.662;2023-02-03T07:32:14;1.20;;;0.60;;
31378;SDS011;61664;48.112;11.662;2023-02-03T07:34:41;0.85;;;0.70;;
31378;SDS011;61664;48.112;11.662;2023-02-03T07:37:08;0.75;;;0.68;;
31378;SDS011;61664;48.112;11.662;2023-02-03T07:39:35;0.70;;;0.70;;
31378;SDS011;61664;48.112;11.662;2023-02-03T07:42:02;0.88;;;0.40;;
31378;SDS011;61664;48.112;11.662;2023-02-03T07:44:29;1.20;;;0.60;;
31378;SDS011;61664;48.112;11.662;2023-02-03T07:46:56;1.70;;;0.63;;
31378;SDS011;61664;48.112;11.662;2023-02-03T07:49:23;0.80;;;0.77;;
31378;SDS011;61664;48.112;11.662;2023-02-03T07:51:50;0.70;;;0.50;;
31378;SDS011;61664;48.112;11.662;2023-02-03T07:54:17;0.60;;;0.47;;
31378;SDS011;61664;48.112;11.662;2023-02-03T07:56:44;0.75;;;0.60;;
31378;SDS011;61664;48.112;11.662;2023-02-03T07:59:11;0.52;;;0.45;;
31378;SDS011;61664;48.112;11.662;2023-02-03T08:01:37;1.80;;;0.60;;
31378;SDS011;61664;48.112;11.662;2023-02-03T08:04:04;3.60;;;0.80;;
31378;SDS011;61664;48.112;11.662;2023-02-03T08:06:31;1.48;;;0.93;;
31378;SDS011;61664;48.112;11.662;2023-02-03T08:08:58;0.60;;;0.60;;
31378;SDS011;61664;48.112;11.662;2023-02-03T08:11:25;2.35;;;0.80;;
31378;SDS011;61664;48.112;11.662;2023-02-03T08:13:52;1.02;;;0.95;;
31378;SDS011;61664;48.112;11.662;2023-02-03T08:16:19;1.73;;;0.70;;
31378;SDS011;61664;48.112;11.662;2023-02-03T08:18:46;1.38;;;1.02;;
31378;SDS011;61664;48.112;11.662;2023-02-03T08:21:13;1.63;;;1.50;;
31378;SDS011;61664;48.112;11.662;2023-02-03T08:23:40;0.60;;;0.57;;
31378;SDS011;61664;48.112;11.662;2023-02-03T08:26:06;0.93;;;0.60;;
31378;SDS011;61664;48.112;11.662;2023-02-03T08:28:33;0.40;;;0.40;;
31378;SDS011;61664;48.112;11.662;2023-02-03T08:31:00;1.40;;;0.60;;
31378;SDS011;61664;48.112;11.662;2023-02-03T08:33:27;0.57;;;0.57;;
31378;SDS011;61664;48.112;11.662;2023-02-03T08:35:54;3.92;;;0.90;;
31378;SDS011;61664;48.112;11.662;2023-02-03T08:38:22;1.00;;;0.77;;
31378;SDS011;61664;48.112;11.662;2023-02-03T08:40:49;0.80;;;0.70;;
31378;SDS011;61664;48.112;11.662;2023-02-03T08:43:16;1.23;;;0.60;;
31378;SDS011;61664;48.112;11.662;2023-02-03T08:45:43;1.55;;;0.98;;
31378;SDS011;61664;48.112;11.662;2023-02-03T08:48:10;0.95;;;0.85;;
31378;SDS011;61664;48.112;11.662;2023-02-03T08:50:39;0.80;;;0.80;;
31378;SDS011;61664;48.112;11.662;2023-02-03T08:53:09;0.82;;;0.68;;
31378;SDS011;61664;48.112;11.662;2023-02-03T08:55:39;1.33;;;0.75;;
31378;SDS011;61664;48.112;11.662;2023-02-03T08:58:06;2.40;;;0.80;;
31378;SDS011;61664;48.112;11.662;2023-02-03T09:00:33;1.73;;;0.65;;
31378;SDS011;61664;48.112;11.662;2023-02-03T09:03:00;1.55;;;0.70;;
31378;SDS011;61664;48.112;11.662;2023-02-03T09:05:28;0.73;;;0.73;;
31378;SDS011;61664;48.112;11.662;2023-02-03T09:07:56;0.85;;;0.52;;
31378;SDS011;61664;48.112;11.662;2023-02-03T09:10:23;2.17;;;0.70;;
31378;SDS011;61664;48.112;11.662;2023-02-03T09:12:51;0.60;;;0.52;;
31378;SDS011;61664;48.112;11.662;2023-02-03T09:15:18;1.77;;;0.60;;
31378;SDS011;61664;48.112;11.662;2023-02-03T09:17:45;0.40;;;0.40;;
31378;SDS011;61664;48.112;11.662;2023-02-03T09:20:12;1.40;;;0.60;;
31378;SDS011;61664;48.112;11.662;2023-02-03T09:22:40;0.50;;;0.50;;
31378;SDS011;61664;48.112;11.662;2023-02-03T09:25:07;1.13;;;0.75;;
31378;SDS011;61664;48.112;11.662;2023-02-03T09:27:34;0.77;;;0.50;;
31378;SDS011;61664;48.112;11.662;2023-02-03T09:30:01;0.47;;;0.40;;
31378;SDS011;61664;48.112;11.662;2023-02-03T09:32:28;0.80;;;0.60;;
31378;SDS011;61664;48.112;11.662;2023-02-03T09:34:55;0.88;;;0.60;;
31378;SDS011;61664;48.112;11.662;2023-02-03T09:37:22;0.73;;;0.50;;
31378;SDS011;61664;48.112;11.662;2023-02-03T09:39:49;0.65;;;0.40;;
31378;SDS011;61664;48.112;11.662;2023-02-03T09:47:51;0.65;;;0.57;;
31378;SDS011;61664;48.112;11.662;2023-02-03T09:50:28;0.68;;;0.50;;
31378;SDS011;61664;48.112;11.662;2023-02-03T09:53:01;0.60;;;0.40;;
31378;SDS011;61664;48.112;11.662;2023-02-03T09:55:38;0.95;;;0.63;;
31378;SDS011;61664;48.112;11.662;2023-02-03T09:58:10;1.13;;;0.50;;
31378;SDS011;61664;48.112;11.662;2023-02-03T10:06:42;0.43;;;0.40;;
31378;SDS011;61664;48.112;11.662;2023-02-03T10:18:06;0.85;;;0.73;;
31378;SDS011;61664;48.112;11.662;2023-02-03T10:20:50;0.63;;;0.50;;
31378;SDS011;61664;48.112;11.662;2023-02-03T10:23:29;2.92;;;0.70;;
31378;SDS011;61664;48.112;11.662;2023-02-03T10:26:02;1.00;;;0.80;;
31378;SDS011;61664;48.112;11.662;2023-02-03T10:31:29;0.98;;;0.70;;
31378;SDS011;61664;48.112;11.662;2023-02-03T10:34:08;0.80;;;0.80;;
31378;SDS011;61664;48.112;11.662;2023-02-03T10:39:46;2.03;;;0.98;;
31378;SDS011;61664;48.112;11.662;2023-02-03T10:42:17;1.63;;;0.73;;
31378;SDS011;61664;48.112;11.662;2023-02-03T10:44:48;1.20;;;0.60;;
31378;SDS011;61664;48.112;11.662;2023-02-03T10:47:26;2.70;;;1.00;;
31378;SDS011;61664;48.112;11.662;2023-02-03T10:50:02;1.83;;;0.90;;
31378;SDS011;61664;48.112;11.662;2023-02-03T10:52:42;2.58;;;1.13;;
31378;SDS011;61664;48.112;11.662;2023-02-03T10:57:52;1.20;;;0.90;;
31378;SDS011;61664;48.112;11.662;2023-02-03T11:00:27;1.42;;;0.90;;
31378;SDS011;61664;48.112;11.662;2023-02-03T11:03:06;1.33;;;0.70;;
31378;SDS011;61664;48.112;11.662;2023-02-03T11:05:46;1.10;;;0.95;;
31378;SDS011;61664;48.112;11.662;2023-02-03T11:08:13;2.78;;;0.98;;
31378;SDS011;61664;48.112;11.662;2023-02-03T11:10:42;1.40;;;0.70;;
31378;SDS011;61664;48.112;11.662;2023-02-03T11:13:09;0.70;;;0.65;;
31378;SDS011;61664;48.112;11.662;2023-02-03T11:15:51;1.00;;;0.70;;
31378;SDS011;61664;48.112;11.662;2023-02-03T11:21:23;0.60;;;0.60;;
31378;SDS011;61664;48.112;11.662;2023-02-03T11:24:17;0.63;;;0.50;;
31378;SDS011;61664;48.112;11.662;2023-02-03T11:26:53;1.25;;;0.82;;
31378;SDS011;61664;48.112;11.662;2023-02-03T11:29:29;1.80;;;0.82;;
31378;SDS011;61664;48.112;11.662;2023-02-03T11:37:50;0.90;;;0.60;;
31378;SDS011;61664;48.112;11.662;2023-02-03T11:40:24;0.57;;;0.57;;
31378;SDS011;61664;48.112;11.662;2023-02-03T11:48:23;1.00;;;0.63;;
31378;SDS011;61664;48.112;11.662;2023-02-03T11:50:57;0.65;;;0.60;;
31378;SDS011;61664;48.112;11.662;2023-02-03T11:56:49;1.58;;;0.52;;
31378;SDS011;61664;48.112;11.662;2023-02-03T12:09:54;1.05;;;0.70;;
31378;SDS011;61664;48.112;11.662;2023-02-03T12:12:20;0.77;;;0.60;;
31378;SDS011;61664;48.112;11.662;2023-02-03T12:30:12;0.82;;;0.47;;
31378;SDS011;61664;48.112;11.662;2023-02-03T12:32:56;0.38;;;0.32;;
31378;SDS011;61664;48.112;11.662;2023-02-03T12:35:38;0.50;;;0.50;;
31378;SDS011;61664;48.112;11.662;2023-02-03T12:43:29;0.55;;;0.55;;
31378;SDS011;61664;48.112;11.662;2023-02-03T12:48:49;1.20;;;0.50;;
31378;SDS011;61664;48.112;11.662;2023-02-03T12:51:58;0.40;;;0.40;;
31378;SDS011;61664;48.112;11.662;2023-02-03T12:57:57;0.47;;;0.40;;
31378;SDS011;61664;48.112;11.662;2023-02-03T13:03:31;0.40;;;0.30;;
31378;SDS011;61664;48.112;11.662;2023-02-03T13:06:13;0.70;;;0.50;;
31378;SDS011;61664;48.112;11.662;2023-02-03T13:08:52;0.43;;;0.40;;
31378;SDS011;61664;48.112;11.662;2023-02-03T13:17:26;0.60;;;0.57;;
31378;SDS011;61664;48.112;11.662;2023-02-03T13:20:11;0.70;;;0.40;;
31378;SDS011;61664;48.112;11.662;2023-02-03T13:22:44;0.57;;;0.57;;
31378;SDS011;61664;48.112;11.662;2023-02-03T13:43:04;0.60;;;0.57;;
31378;SDS011;61664;48.112;11.662;2023-02-03T13:45:40;1.90;;;0.70;;
31378;SDS011;61664;48.112;11.662;2023-02-03T13:48:18;1.58;;;0.57;;
31378;SDS011;61664;48.112;11.662;2023-02-03T13:51:01;0.87;;;0.60;;
31378;SDS011;61664;48.112;11.662;2023-02-03T13:53:36;2.03;;;0.80;;
31378;SDS011;61664;48.112;11.662;2023-02-03T13:56:06;0.98;;;0.82;;
31378;SDS011;61664;48.112;11.662;2023-02-03T13:59:02;0.60;;;0.60;;
31378;SDS011;61664;48.112;11.662;2023-02-03T14:01:39;1.20;;;0.60;;
31378;SDS011;61664;48.112;11.662;2023-02-03T14:20:01;0.63;;;0.57;;
31378;SDS011;61664;48.112;11.662;2023-02-03T14:22:58;0.40;;;0.40;;
31378;SDS011;61664;48.112;11.662;2023-02-03T14:25:38;0.75;;;0.52;;
31378;SDS011;61664;48.112;11.662;2023-02-03T14:28:27;2.35;;;0.60;;
31378;SDS011;61664;48.112;11.662;2023-02-03T14:31:06;0.52;;;0.43;;
31378;SDS011;61664;48.112;11.662;2023-02-03T14:50:04;0.75;;;0.60;;
31378;SDS011;61664;48.112;11.662;2023-02-03T14:58:48;0.65;;;0.65;;
31378;SDS011;61664;48.112;11.662;2023-02-03T15:06:40;0.77;;;0.57;;
31378;SDS011;61664;48.112;11.662;2023-02-03T15:09:23;1.42;;;0.90;;
31378;SDS011;61664;48.112;11.662;2023-02-03T15:11:58;0.80;;;0.73;;
31378;SDS011;61664;48.112;11.662;2023-02-03T15:14:26;1.27;;;0.95;;
31378;SDS011;61664;48.112;11.662;2023-02-03T15:17:02;0.68;;;0.63;;
31378;SDS011;61664;48.112;11.662;2023-02-03T15:19:39;3.08;;;0.82;;
31378;SDS011;61664;48.112;11.662;2023-02-03T15:25:08;0.75;;;0.75;;
31378;SDS011;61664;48.112;11.662;2023-02-03T15:27:43;3.58;;;0.95;;
31378;SDS011;61664;48.112;11.662;2023-02-03T15:30:15;1.00;;;0.82;;
31378;SDS011;61664;48.112;11.662;2023-02-03T15:33:27;1.15;;;0.68;;
31378;SDS011;61664;48.112;11.662;2023-02-03T15:35:52;1.23;;;0.90;;
31378;SDS011;61664;48.112;11.662;2023-02-03T15:38:49;0.90;;;0.90;;
31378;SDS011;61664;48.112;11.662;2023-02-03T15:41:30;2.00;;;1.80;;
31378;SDS011;61664;48.112;11.662;2023-02-03T15:43:58;1.98;;;1.77;;
31378;SDS011;61664;48.112;11.662;2023-02-03T15:46:41;1.77;;;1.05;;
31378;SDS011;61664;48.112;11.662;2023-02-03T15:52:01;1.50;;;1.13;;
31378;SDS011;61664;48.112;11.662;2023-02-03T15:54:46;1.63;;;1.00;;
31378;SDS011;61664;48.112;11.662;2023-02-03T15:59:55;3.88;;;1.90;;
31378;SDS011;61664;48.112;11.662;2023-02-03T16:02:35;4.20;;;2.70;;
31378;SDS011;61664;48.112;11.662;2023-02-03T16:05:22;2.00;;;1.65;;
31378;SDS011;61664;48.112;11.662;2023-02-03T16:07:54;2.58;;;1.30;;
31378;SDS011;61664;48.112;11.662;2023-02-03T16:10:23;1.00;;;1.00;;
31378;SDS011;61664;48.112;11.662;2023-02-03T16:16:03;0.80;;;0.80;;
31378;SDS011;61664;48.112;11.662;2023-02-03T16:18:51;0.90;;;0.70;;
31378;SDS011;61664;48.112;11.662;2023-02-03T16:29:53;1.02;;;0.88;;
31378;SDS011;61664;48.112;11.662;2023-02-03T16:33:09;1.23;;;0.80;;
31378;SDS011;61664;48.112;11.662;2023-02-03T16:36:01;1.98;;;1.02;;
31378;SDS011;61664;48.112;11.662;2023-02-03T16:38:57;1.13;;;0.70;;
31378;SDS011;61664;48.112;11.662;2023-02-03T16:41:46;1.25;;;1.02;;
31378;SDS011;61664;48.112;11.662;2023-02-03T16:44:32;0.88;;;0.68;;
31378;SDS011;61664;48.112;11.662;2023-02-03T16:47:27;0.80;;;0.50;;
31378;SDS011;61664;48.112;11.662;2023-02-03T16:50:19;1.45;;;0.88;;
31378;SDS011;61664;48.112;11.662;2023-02-03T16:53:11;4.07;;;1.35;;
31378;SDS011;61664;48.112;11.662;2023-02-03T16:55:45;2.67;;;1.40;;
31378;SDS011;61664;48.112;11.662;2023-02-03T16:58:12;1.83;;;1.67;;
31378;SDS011;61664;48.112;11.662;2023-02-03T17:00:40;1.55;;;1.15;;
31378;SDS011;61664;48.112;11.662;2023-02-03T17:03:19;1.33;;;0.80;;
31378;SDS011;61664;48.112;11.662;2023-02-03T17:05:49;0.88;;;0.73;;
31378;SDS011;61664;48.112;11.662;2023-02-03T17:08:18;1.45;;;1.15;;
31378;SDS011;61664;48.112;11.662;2023-02-03T17:10:48;1.48;;;1.33;;
31378;SDS011;61664;48.112;11.662;2023-02-03T17:13:17;1.15;;;0.70;;
31378;SDS011;61664;48.112;11.662;2023-02-03T17:15:46;1.15;;;0.70;;
31378;SDS011;61664;48.112;11.662;2023-02-03T17:18:17;1.25;;;0.70;;
31378;SDS011;61664;48.112;11.662;2023-02-03T17:20:45;2.80;;;1.02;;
31378;SDS011;61664;48.112;11.662;2023-02-03T17:23:12;1.63;;;1.27;;
31378;SDS011;61664;48.112;11.662;2023-02-03T17:25:46;0.70;;;0.70;;
31378;SDS011;61664;48.112;11.662;2023-02-03T17:28:15;1.25;;;1.15;;
31378;SDS011;61664;48.112;11.662;2023-02-03T17:30:42;2.03;;;1.92;;
31378;SDS011;61664;48.112;11.662;2023-02-03T17:33:10;2.75;;;1.60;;
31378;SDS011;61664;48.112;11.662;2023-02-03T17:35:41;2.45;;;1.55;;
31378;SDS011;61664;48.112;11.662;2023-02-03T17:38:11;1.10;;;0.98;;
31378;SDS011;61664;48.112;11.662;2023-02-03T17:40:42;0.73;;;0.63;;
31378;SDS011;61664;48.112;11.662;2023-02-03T17:43:27;0.90;;;0.60;;
31378;SDS011;61664;48.112;11.662;2023-02-03T17:46:19;1.30;;;1.20;;
31378;SDS011;61664;48.112;11.662;2023-02-03T17:49:07;1.40;;;0.90;;
31378;SDS011;61664;48.112;11.662;2023-02-03T17:51:51;1.48;;;1.38;;
31378;SDS011;61664;48.112;11.662;2023-02-03T17:54:36;1.67;;;1.58;;
31378;SDS011;61664;48.112;11.662;2023-02-03T17:57:03;2.22;;;1.73;;
31378;SDS011;61664;48.112;11.662;2023-02-03T17:59:30;2.88;;;1.15;;
31378;SDS011;61664;48.112;11.662;2023-02-03T18:01:59;0.47;;;0.47;;
31378;SDS011;61664;48.112;11.662;2023-02-03T18:04:26;1.08;;;0.65;;
31378;SDS011;61664;48.112;11.662;2023-02-03T18:06:53;0.80;;;0.77;;
31378;SDS011;61664;48.112;11.662;2023-02-03T18:09:20;2.88;;;0.80;;
31378;SDS011;61664;48.112;11.662;2023-02-03T18:11:47;0.47;;;0.47;;
31378;SDS011;61664;48.112;11.662;2023-02-03T18:14:14;0.80;;;0.80;;
31378;SDS011;61664;48.112;11.662;2023-02-03T18:16:42;0.50;;;0.50;;
31378;SDS011;61664;48.112;11.662;2023-02-03T18:19:11;0.85;;;0.65;;
31378;SDS011;61664;48.112;11.662;2023-02-03T18:21:41;0.47;;;0.47;;
31378;SDS011;61664;48.112;11.662;2023-02-03T18:24:09;1.05;;;0.50;;
31378;SDS011;61664;48.112;11.662;2023-02-03T18:26:48;0.70;;;0.60;;
31378;SDS011;61664;48.112;11.662;2023-02-03T18:29:17;0.60;;;0.50;;
31378;SDS011;61664;48.112;11.662;2023-02-03T18:31:44;0.47;;;0.47;;